Latest Coastal Weather Observations for Low Head

IDT60701

Issued at 3:42 pm EDT Tuesday 17 January 2017 (issued every 10 minutes, with the page automatically refreshed every 10 minutes)

About coastal observations | Map of coastal stations | Coastal observations for TAS | Marine services | Other Formats
Station Details ID: 091293 Name: LOW HEAD Lat: -41.05 Lon: 146.79 Height: 3.0 m
Data from the previous 72 hours. | See also: Recent months at Low Head
Date/Time
EDT
Temp
°C
Wind Pressure Rain since
9am
mm
Weather Cloud Vis
km
Sea
Height
m
Swell
Dir  Spd
kts
Gust
kts
hPa Trend Height
m
Period
s
Dir
17/03:30pm 19.5 NNW 13 15 1004.6 - 0.0 - - - - - - -
17/03:00pm 19.1 NNW 13 15 1005.0 - 0.0 - - - - - - -
17/02:30pm 18.6 N 11 13 1005.0 - 0.0 - - - - - - -
17/02:00pm 18.1 N 9 11 1005.6 - 0.0 - - - - - - -
17/01:30pm 17.6 NNE 10 11 1005.6 - 0.0 - - - - - - -
17/01:00pm 17.8 NNE 9 11 1006.2 - 0.0 - - - - - - -
17/12:30pm 17.0 NNE 9 11 1006.2 - 0.0 - - - - - - -
17/12:00pm 17.3 NNE 7 8 1006.3 - 0.0 - - - - - - -
17/11:30am 17.5 N 5 7 1006.7 - 0.0 - - - - - - -
17/11:00am 17.7 N 7 7 1006.9 - 0.0 - - - - - - -
17/10:30am 17.3 N 5 5 1006.8 - 0.0 - - - - - - -
17/10:00am 16.5 NNE 4 5 1007.0 - 0.0 - - - - - - -
17/09:30am 16.5 NE 5 6 1007.1 - 0.0 - - - - - - -
17/09:00am 16.1 NNE 5 5 1007.4 - 0.0 - - - - - - -
17/08:30am 16.1 ENE 1 5 1007.3 - 0.0 - - - - - - -
17/08:00am 15.9 E 3 4 1007.7 - 0.0 - - - - - - -
17/07:30am 15.6 CALM 0 0 1007.6 - 0.0 - - - - - - -
17/07:00am 15.2 E 4 5 1007.6 - 0.0 - - - - - - -
17/06:30am 14.8 E 5 5 1007.5 - 0.0 - - - - - - -
17/06:00am 14.5 E 5 6 1007.5 - 0.0 - - - - - - -
17/05:30am 14.7 E 5 5 1007.2 - 0.0 - - - - - - -
17/05:00am 15.7 CALM 0 2 1007.3 - 0.0 - - - - - - -
17/04:30am 15.9 N 4 5 1007.3 - 0.0 - - - - - - -
17/04:00am 15.9 NNW 7 8 1007.3 - 0.0 - - - - - - -
17/03:30am 16.0 NNW 9 11 1007.4 - 0.0 - - - - - - -
17/03:00am 16.0 N 11 13 1007.6 - 0.0 - - - - - - -
17/02:30am 16.0 N 12 14 1007.8 - 0.0 - - - - - - -
17/02:00am 16.0 NNW 12 14 1008.0 - 0.0 - - - - - - -
17/01:30am 16.1 N 11 14 1008.0 - 0.0 - - - - - - -
17/01:00am 16.1 NNW 11 14 1008.5 - 0.0 - - - - - - -
17/12:30am 16.0 NNW 5 6 1008.8 - 0.0 - - - - - - -
17/12:00am 16.0 WSW 5 6 1009.1 - 0.0 - - - - - - -
 
Date/Time
EDT
Temp
°C
Wind Pressure Rain since
9am
mm
Weather Cloud Vis
km
Sea
Height
m
Swell
Dir  Spd
kts
Gust
kts
hPa Trend Height
m
Period
s
Dir
16/11:30pm 16.2 W 6 8 1009.3 - 0.0 - - - - - - -
16/11:00pm 16.3 WNW 7 9 1009.9 - 0.0 - - - - - - -
16/10:30pm 16.3 NW 9 12 1010.1 - 0.0 - - - - - - -
16/10:00pm 16.3 NW 13 15 1010.1 - 0.0 - - - - - - -
16/09:30pm 16.2 NW 16 18 1009.6 - 0.0 - - - - - - -
16/09:00pm 16.2 NW 17 19 1009.7 - 0.0 - - - - - - -
16/08:30pm 16.2 NW 15 18 1009.4 - 0.0 - - - - - - -
16/08:00pm 16.8 NW 11 15 1009.9 - 0.0 - - - - - - -
16/07:30pm 17.6 WNW 7 9 1010.0 - 0.0 - - - - - - -
16/07:00pm 17.4 NW 11 15 1009.9 - 0.0 - - - - - - -
16/06:30pm 17.5 NW 17 21 1009.9 - 0.0 - - - - - - -
16/06:00pm 17.9 NW 14 17 1010.2 - 0.0 - - - - - - -
16/05:30pm 17.8 NW 16 19 1010.2 - 0.0 - - - - - - -
16/05:00pm 17.8 NW 18 21 1010.7 - 0.0 - - - - - - -
16/04:30pm 17.8 NW 20 23 1010.8 - 0.0 - - - - - - -
16/04:00pm 18.0 NW 20 24 1011.2 - 0.0 - - - - - - -
16/03:30pm 18.2 NW 19 23 1011.4 - 0.0 - - - - - - -
16/03:00pm 18.0 NW 20 23 1011.4 - 0.0 - - - - - - -
16/02:30pm 18.2 NW 20 23 1011.7 - 0.0 - - - - - - -
16/02:00pm 18.0 NW 20 23 1012.0 - 0.0 - - - - - - -
16/01:30pm 18.3 NW 20 23 1012.3 - 0.0 - - - - - - -
16/01:00pm 18.1 NW 20 24 1012.6 - 0.0 - - - - - - -
16/12:30pm 17.8 WNW 20 24 1012.8 - 0.0 - - - - - - -
16/12:00pm 17.7 WNW 20 23 1012.8 - 0.0 - - - - - - -
16/11:30am 17.3 WNW 20 24 1013.2 - 0.0 - - - - - - -
16/11:00am 16.9 WNW 20 24 1013.4 - 0.0 - - - - - - -
16/10:30am 16.6 WNW 21 25 1013.8 - 0.0 - - - - - - -
16/10:00am 16.3 WNW 21 24 1013.9 - 0.0 - - - - - - -
16/09:30am 15.7 WNW 21 25 1013.9 - 0.0 - - - - - - -
16/09:00am 15.4 WNW 21 25 1014.0 - 0.0 - - - - - - -
16/08:30am 15.3 WNW 19 22 1013.9 - 0.0 - - - - - - -
16/08:00am 14.9 WNW 19 23 1013.6 - 0.0 - - - - - - -
16/07:30am 14.5 W 22 25 1013.4 - 0.0 - - - - - - -
16/07:00am 14.5 WNW 21 24 1013.2 - 0.0 - - - - - - -
16/06:30am 14.3 WNW 21 24 1013.0 - 0.0 - - - - - - -
16/06:00am 14.4 WNW 19 23 1012.6 - 0.0 - - - - - - -
16/05:30am 14.2 WNW 18 21 1012.4 - 0.0 - - - - - - -
16/05:00am 14.2 WNW 18 20 1012.3 - 0.0 - - - - - - -
16/04:30am 14.3 WNW 18 21 1012.2 - 0.0 - - - - - - -
16/04:00am 14.4 W 20 24 1012.2 - 0.0 - - - - - - -
16/03:30am 14.4 W 20 23 1012.2 - 0.0 - - - - - - -
16/03:00am 14.5 WNW 20 23 1012.4 - 0.0 - - - - - - -
16/02:30am 14.6 WNW 21 23 1012.6 - 0.0 - - - - - - -
16/02:00am 14.9 W 22 25 1012.8 - 0.0 - - - - - - -
16/01:30am 14.8 W 23 28 1013.1 - 0.0 - - - - - - -
16/01:00am 14.8 W 23 26 1013.4 - 0.0 - - - - - - -
16/12:30am 15.1 W 21 25 1013.7 - 0.0 - - - - - - -
16/12:00am 15.0 W 22 25 1013.6 - 0.0 - - - - - - -
 
Date/Time
EDT
Temp
°C
Wind Pressure Rain since
9am
mm
Weather Cloud Vis
km
Sea
Height
m
Swell
Dir  Spd
kts
Gust
kts
hPa Trend Height
m
Period
s
Dir
15/11:30pm 15.2 W 23 27 1013.6 - 0.0 - - - - - - -
15/11:00pm 15.6 W 22 25 1013.7 - 0.0 - - - - - - -
15/10:30pm 15.7 W 22 25 1013.9 - 0.0 - - - - - - -
15/10:00pm 16.0 W 22 25 1013.9 - 0.0 - - - - - - -
15/09:30pm 16.1 W 20 23 1013.8 - 0.0 - - - - - - -
15/09:00pm 16.3 W 21 24 1013.6 - 0.0 - - - - - - -
15/08:30pm 16.5 W 21 25 1013.0 - 0.0 - - - - - - -
15/08:00pm 16.9 WNW 21 25 1012.8 - 0.0 - - - - - - -
15/07:30pm 17.3 WNW 21 24 1012.7 - 0.0 - - - - - - -
15/07:00pm 17.5 WNW 21 25 1012.7 - 0.0 - - - - - - -
15/06:30pm 17.6 WNW 22 26 1012.6 - 0.0 - - - - - - -
15/06:00pm 17.9 WNW 20 23 1012.8 - 0.0 - - - - - - -
15/05:30pm 17.9 WNW 20 23 1013.1 - 0.0 - - - - - - -
15/05:00pm 18.1 WNW 23 27 1013.1 - 0.0 - - - - - - -
15/04:30pm 17.9 WNW 23 27 1013.5 - 0.0 - - - - - - -
15/04:00pm 17.8 WNW 23 26 1013.7 - 0.0 - - - - - - -
15/03:30pm 17.9 WNW 22 26 1013.8 - 0.0 - - - - - - -
15/03:00pm 18.3 WNW 19 22 1014.0 - 0.0 - - - - - - -
15/02:30pm 18.0 WNW 21 25 1014.1 - 0.0 - - - - - - -
15/02:00pm 17.9 WNW 22 26 1014.2 - 0.0 - - - - - - -
15/01:30pm 17.1 WNW 23 27 1014.1 - 0.0 - - - - - - -
15/01:00pm 17.0 W 23 26 1014.5 - 0.0 - - - - - - -
15/12:30pm 16.8 WNW 21 25 1014.6 - 0.0 - - - - - - -
15/12:00pm 16.8 WNW 21 25 1014.6 - 0.0 - - - - - - -
15/11:30am 16.8 WNW 20 23 1014.7 - 0.0 - - - - - - -
15/11:00am 16.2 WNW 21 25 1014.8 - 0.0 - - - - - - -
15/10:30am 15.6 W 20 23 1014.4 - 0.0 - - - - - - -
15/10:00am 15.2 W 19 22 1014.3 - 0.0 - - - - - - -
15/09:30am 15.0 W 19 22 1014.5 - 0.0 - - - - - - -
15/09:00am 14.8 W 17 20 1014.4 - 0.2 - - - - - - -
15/08:30am 14.4 WSW 17 21 1014.0 - 0.2 - - - - - - -
15/08:00am 14.1 WSW 19 21 1013.6 - 0.2 - - - - - - -
15/07:30am 13.9 W 18 20 1013.2 - 0.2 - - - - - - -
15/07:00am 13.8 W 18 21 1012.8 - 0.2 - - - - - - -
15/06:30am 13.7 W 19 23 1012.6 - 0.2 - - - - - - -
15/06:00am 13.8 W 19 22 1012.2 - 0.2 - - - - - - -
15/05:30am 13.8 W 18 22 1011.7 - 0.2 - - - - - - -
15/05:00am 13.2 WSW 15 18 1011.2 - 0.2 - - - - - - -
15/04:30am 13.6 WSW 18 21 1010.9 - 0.2 - - - - - - -
15/04:00am 13.7 W 19 22 1010.7 - 0.2 - - - - - - -
15/03:30am 13.8 W 21 25 1010.7 - 0.2 - - - - - - -
15/03:00am 13.8 W 21 24 1010.7 - 0.2 - - - - - - -
15/02:30am 13.9 W 19 23 1010.2 - 0.2 - - - - - - -
15/02:00am 14.0 W 19 22 1010.5 - 0.2 - - - - - - -
15/01:30am 14.0 W 24 27 1010.1 - 0.2 - - - - - - -
15/01:00am 14.2 WSW 16 19 1010.3 - 0.2 - - - - - - -
15/12:30am 14.2 W 21 25 1010.1 - 0.2 - - - - - - -
15/12:00am 14.2 WSW 23 28 1009.5 - 0.2 - - - - - - -
 
Date/Time
EDT
Temp
°C
Wind Pressure Rain since
9am
mm
Weather Cloud Vis
km
Sea
Height
m
Swell
Dir  Spd
kts
Gust
kts
hPa Trend Height
m
Period
s
Dir
14/11:30pm 14.4 WSW 22 25 1009.6 - 0.2 - - - - - - -
14/11:00pm 14.5 W 23 28 1009.1 - 0.2 - - - - - - -
14/10:30pm 14.6 W 25 28 1008.6 - 0.2 - - - - - - -
14/10:00pm 14.9 W 23 26 1008.5 - 0.2 - - - - - - -
14/09:30pm 15.0 WSW 26 32 1007.5 - 0.2 - - - - - - -
14/09:00pm 15.2 WSW 27 31 1007.0 - 0.2 - - - - - - -
14/08:30pm 15.5 WSW 24 29 1006.5 - 0.2 - - - - - - -
14/08:00pm 15.9 WSW 26 31 1005.9 - 0.2 - - - - - - -
14/07:30pm 16.7 WSW 21 26 1005.2 - 0.2 - - - - - - -
14/07:00pm 17.0 WSW 24 29 1004.2 - 0.2 - - - - - - -
14/06:30pm 17.0 W 25 30 1003.3 - 0.2 - - - - - - -
14/06:00pm 16.9 W 29 36 1003.2 - 0.2 - - - - - - -
14/05:30pm 17.3 WSW 29 37 1002.5 - 0.2 - - - - - - -
14/05:00pm 17.9 W 28 39 1001.9 - 0.2 - - - - - - -
14/04:59pm 17.9 W 27 39 1001.9 - 0.2 - - - - - - -
14/04:30pm 18.2 W 26 32 1001.3 - 0.2 - - - - - - -
14/04:00pm 18.1 W 25 31 1000.7 - 0.2 - - - - - - -

Other Formats:

Comma delimited format used in spreadsheet applications
http://www.bom.gov.au/fwo/IDT60701/IDT60701.95964.axf

JavaScript Object Notation format (JSON) in row-major order
http://www.bom.gov.au/fwo/IDT60701/IDT60701.95964.json